Time;durP1;ratioP1;P1;durP2;ratioP2;P2;SDS_P1;SDS_P2;PMS_P1;PMS_P2;Temp;Humidity;BMP_temperature;BMP_pressure;BME280_temperature;BME280_humidity;BME280_pressure;Samples;Min_cycle;Max_cycle;Signal;HPM_P1;HPM_P2
2023/08/31 00:00:10;;;;;;;4.75;2.80;;;;;;;12.50;100.00;100821.63;5130753;27;19911;-36
2023/08/31 00:02:35;;;;;;;4.47;2.80;;;;;;;12.55;100.00;100833.38;5131482;27;20039;-36
2023/08/31 00:05:01;;;;;;;4.75;3.20;;;;;;;12.47;100.00;100812.09;5131428;27;20072;-36
2023/08/31 00:07:26;;;;;;;5.05;2.95;;;;;;;12.44;100.00;100825.28;5131617;27;20024;-36
2023/08/31 00:09:52;;;;;;;3.80;3.10;;;;;;;12.42;100.00;100822.84;5121948;27;20049;-36
2023/08/31 00:12:17;;;;;;;3.33;2.93;;;;;;;12.45;100.00;100821.53;5116946;28;20242;-36
2023/08/31 00:14:42;;;;;;;5.07;3.30;;;;;;;12.41;100.00;100818.50;5116972;28;20024;-36
2023/08/31 00:17:07;;;;;;;5.72;3.50;;;;;;;12.44;100.00;100826.13;5117641;28;20019;-36
2023/08/31 00:19:33;;;;;;;5.53;3.23;;;;;;;12.49;100.00;100828.94;5116591;28;20023;-36
2023/08/31 00:21:58;;;;;;;6.50;3.57;;;;;;;12.35;100.00;100817.56;5117054;28;20247;-36
2023/08/31 00:24:29;;;;;;;4.28;3.70;;;;;;;12.35;100.00;100812.16;5116716;28;20033;-37
2023/08/31 00:26:55;;;;;;;7.40;4.07;;;;;;;12.31;100.00;100826.44;5116958;27;20030;-46
2023/08/31 00:29:20;;;;;;;4.88;4.22;;;;;;;12.31;100.00;100816.41;5116890;28;20016;-36
2023/08/31 00:31:48;;;;;;;5.47;4.07;;;;;;;12.20;100.00;100803.75;5117255;28;20440;-36
2023/08/31 00:34:14;;;;;;;4.40;4.00;;;;;;;12.32;100.00;100806.38;5116314;28;20059;-36
2023/08/31 00:36:40;;;;;;;4.07;3.28;;;;;;;12.34;100.00;100810.47;5117408;28;20041;-36
2023/08/31 00:39:06;;;;;;;5.63;4.55;;;;;;;12.30;100.00;100808.53;5116427;28;20034;-36
2023/08/31 00:41:32;;;;;;;6.10;4.63;;;;;;;12.27;100.00;100822.56;5116365;28;20047;-36
2023/08/31 00:43:58;;;;;;;7.75;4.97;;;;;;;12.32;100.00;100818.06;5116070;28;20070;-36
2023/08/31 00:46:24;;;;;;;5.03;4.55;;;;;;;12.33;100.00;100819.69;5116280;28;20023;-36
2023/08/31 00:48:49;;;;;;;4.97;4.20;;;;;;;12.30;100.00;100819.38;5117059;28;20031;-36
2023/08/31 00:51:14;;;;;;;8.63;5.57;;;;;;;12.19;100.00;100806.69;5116256;28;20024;-36
2023/08/31 00:53:41;;;;;;;6.50;4.93;;;;;;;12.17;100.00;100812.34;5116128;28;20011;-36
2023/08/31 00:56:06;;;;;;;;;;;;;;;12.35;100.00;100816.75;5117233;28;20019;-36
2023/08/31 00:58:32;;;;;;;5.97;5.25;;;;;;;12.25;100.00;100811.97;5116245;28;19999;-36
2023/08/31 01:01:21;;;;;;;4.83;4.43;;;;;;;12.25;100.00;100811.97;5115760;28;20094;-36
2023/08/31 01:04:22;;;;;;;5.93;4.78;;;;;;;12.27;100.00;100822.56;5116573;28;20023;-36
2023/08/31 01:07:14;;;;;;;6.43;5.65;;;;;;;12.05;100.00;100800.72;5115834;28;20019;-36
2023/08/31 01:09:57;;;;;;;6.25;4.97;;;;;;;12.09;100.00;100801.88;5116477;28;20412;-36
2023/08/31 01:12:34;;;;;;;6.28;5.65;;;;;;;12.06;100.00;100807.81;5115690;28;20019;-36
2023/08/31 01:15:04;;;;;;;7.32;5.88;;;;;;;12.00;100.00;100808.75;5116054;28;20016;-36
2023/08/31 01:17:31;;;;;;;8.27;5.90;;;;;;;11.93;100.00;100813.50;5115331;28;20030;-36
2023/08/31 01:19:59;;;;;;;6.80;5.35;;;;;;;11.83;100.00;100806.00;5115865;28;20028;-36
2023/08/31 01:22:33;;;;;;;6.15;5.32;;;;;;;11.89;100.00;100821.28;5115451;28;20145;-36
2023/08/31 01:25:03;;;;;;;7.60;5.68;;;;;;;11.85;100.00;100820.94;5115903;28;20076;-37
2023/08/31 01:27:30;;;;;;;6.60;5.90;;;;;;;11.87;100.00;100818.00;5115598;28;20032;-37
2023/08/31 01:29:55;;;;;;;6.15;5.55;;;;;;;11.77;100.00;100813.16;5115513;28;20351;-37
2023/08/31 01:32:21;;;;;;;5.60;4.68;;;;;;;11.90;100.00;100814.78;5115756;28;20030;-37
2023/08/31 01:34:46;;;;;;;6.18;5.10;;;;;;;11.96;100.00;100830.09;5115103;28;20519;-37
2023/08/31 01:37:17;;;;;;;7.47;5.53;;;;;;;11.90;100.00;100828.34;5115524;28;20024;-37
2023/08/31 01:40:03;;;;;;;7.38;5.80;;;;;;;11.91;100.00;100835.44;5115657;28;20458;-37
2023/08/31 01:42:29;;;;;;;5.50;4.90;;;;;;;11.89;100.00;100834.81;5115598;28;20020;-37
2023/08/31 01:44:57;;;;;;;7.93;5.63;;;;;;;11.87;100.00;100839.66;5116076;28;20031;-37
2023/08/31 01:47:23;;;;;;;5.78;5.18;;;;;;;11.83;100.00;100841.22;5115488;28;20103;-37
2023/08/31 01:49:48;;;;;;;5.93;5.32;;;;;;;11.86;100.00;100835.31;5115725;28;20044;-37
2023/08/31 01:52:14;;;;;;;5.88;5.28;;;;;;;11.86;100.00;100835.31;5115665;28;20047;-37
2023/08/31 01:54:39;;;;;;;5.93;5.17;;;;;;;11.85;100.00;100834.47;5115100;28;20411;-37
2023/08/31 01:57:06;;;;;;;6.28;5.68;;;;;;;11.82;100.00;100836.84;5114961;28;20265;-37
2023/08/31 01:59:31;;;;;;;6.13;5.03;;;;;;;11.89;100.00;100834.81;5114467;28;20093;-37
2023/08/31 02:01:58;;;;;;;7.10;5.85;;;;;;;11.75;100.00;100814.44;5114977;28;20467;-37
2023/08/31 02:04:23;;;;;;;;;;;;;;;11.97;100.00;100839.06;5114915;28;20115;-37
2023/08/31 02:06:48;;;;;;;6.80;5.47;;;;;;;11.83;100.00;100822.25;5114652;28;19969;-37
2023/08/31 02:09:14;;;;;;;6.83;6.03;;;;;;;11.84;100.00;100824.69;5114727;28;20023;-37
2023/08/31 02:11:39;;;;;;;6.88;5.57;;;;;;;11.85;100.00;100823.63;5115042;28;20254;-42
2023/08/31 02:14:05;;;;;;;6.20;5.57;;;;;;;11.90;100.00;100828.34;5114603;28;20460;-37
2023/08/31 02:16:31;;;;;;;6.15;5.25;;;;;;;11.98;100.00;100827.97;5114882;28;20260;-37
2023/08/31 02:18:57;;;;;;;6.90;5.60;;;;;;;11.96;100.00;100810.31;5114097;27;20027;-37
2023/08/31 02:21:22;;;;;;;6.65;5.88;;;;;;;11.98;100.00;100822.53;5114868;28;20103;-37
2023/08/31 02:23:48;;;;;;;8.75;6.10;;;;;;;11.97;100.00;100825.50;5114176;28;20090;-37
2023/08/31 02:26:13;;;;;;;7.65;5.88;;;;;;;11.89;100.00;100809.63;5114856;28;20088;-37
2023/08/31 02:28:39;;;;;;;7.53;5.53;;;;;;;12.01;100.00;100824.78;5114779;28;20110;-37
2023/08/31 02:31:04;;;;;;;7.00;5.40;;;;;;;12.02;100.00;100822.91;5114386;28;20398;-37
2023/08/31 02:33:29;;;;;;;6.30;5.67;;;;;;;12.03;100.00;100814.50;5113879;28;20063;-37
2023/08/31 02:35:55;;;;;;;7.10;5.17;;;;;;;12.07;100.00;100831.94;5114035;28;20297;-37
2023/08/31 02:38:21;;;;;;;7.05;5.47;;;;;;;12.01;100.00;100822.06;5115038;28;20269;-37
2023/08/31 02:40:47;;;;;;;8.95;5.85;;;;;;;12.05;100.00;100833.25;5114209;28;20027;-37
2023/08/31 02:43:13;;;;;;;7.50;6.15;;;;;;;12.06;100.00;100830.31;5114280;28;20024;-37
2023/08/31 02:45:38;;;;;;;;;;;;;;;12.14;100.00;100842.63;5114699;28;20015;-37
2023/08/31 02:48:06;;;;;;;5.93;5.17;;;;;;;12.08;100.00;100841.72;5114264;28;20354;-37
2023/08/31 02:50:31;;;;;;;6.47;5.72;;;;;;;12.03;100.00;100835.38;5114063;28;20379;-37
2023/08/31 02:52:57;;;;;;;7.13;5.78;;;;;;;12.09;100.00;100843.34;5114726;28;20131;-37
2023/08/31 02:55:22;;;;;;;8.18;6.03;;;;;;;12.06;100.00;100841.16;5114120;28;20023;-37
2023/08/31 02:57:48;;;;;;;8.95;6.18;;;;;;;12.08;100.00;100839.00;5114020;28;20447;-37
2023/08/31 03:00:14;;;;;;;6.47;5.68;;;;;;;12.07;100.00;100841.97;5113972;28;20049;-36
2023/08/31 03:02:40;;;;;;;6.97;6.00;;;;;;;12.05;100.00;100836.81;5114290;28;20023;-37
2023/08/31 03:05:06;;;;;;;8.55;6.47;;;;;;;12.03;100.00;100835.38;5113891;28;20080;-36
2023/08/31 03:07:32;;;;;;;6.80;5.80;;;;;;;12.01;100.00;100838.34;5114542;28;20028;-37
2023/08/31 03:09:57;;;;;;;7.03;6.32;;;;;;;12.06;100.00;100834.91;5114204;28;20026;-37
2023/08/31 03:12:22;;;;;;;6.67;5.90;;;;;;;11.97;100.00;100831.75;5113741;28;20085;-37
2023/08/31 03:14:48;;;;;;;8.97;6.53;;;;;;;11.96;100.00;100840.13;5113583;28;20265;-37
2023/08/31 03:17:13;;;;;;;8.82;6.60;;;;;;;11.85;100.00;100825.53;5114671;28;20023;-37
2023/08/31 03:19:39;;;;;;;8.07;7.10;;;;;;;11.92;100.00;100831.66;5113858;28;20051;-37
2023/08/31 03:22:04;;;;;;;7.60;6.60;;;;;;;11.90;100.00;100831.03;5114167;28;20024;-37
2023/08/31 03:24:32;;;;;;;7.65;6.90;;;;;;;11.75;100.00;100830.69;5114386;28;20348;-37
2023/08/31 03:26:57;;;;;;;7.68;6.93;;;;;;;11.74;100.00;100840.72;5114351;28;20024;-37
2023/08/31 03:29:23;;;;;;;9.95;7.88;;;;;;;11.69;100.00;100839.78;5113733;28;20443;-37
2023/08/31 03:31:48;;;;;;;9.70;8.63;;;;;;;11.66;100.00;100837.53;5114549;28;20031;-37
2023/08/31 03:34:13;;;;;;;9.17;8.27;;;;;;;11.63;100.00;100838.88;5113714;28;20272;-37
2023/08/31 03:36:38;;;;;;;11.83;9.43;;;;;;;11.65;100.00;100844.03;5114287;28;20030;-37
2023/08/31 03:39:04;;;;;;;10.17;9.13;;;;;;;11.62;100.00;100839.94;5113640;28;20277;-37
2023/08/31 03:41:30;;;;;;;12.60;10.95;;;;;;;11.54;100.00;100841.09;5113919;28;20049;-37
2023/08/31 03:43:55;;;;;;;10.95;9.85;;;;;;;11.54;100.00;100843.81;5113778;28;20027;-37
2023/08/31 03:46:21;;;;;;;11.43;10.33;;;;;;;11.46;100.00;100824.38;5118126;28;20076;-37
2023/08/31 03:48:46;;;;;;;12.13;10.83;;;;;;;11.49;100.00;100832.88;5117582;28;20297;-37
2023/08/31 03:51:11;;;;;;;12.00;10.80;;;;;;;11.53;100.00;100831.34;5117442;28;20042;-37
2023/08/31 03:53:37;;;;;;;11.88;10.77;;;;;;;11.52;100.00;100840.53;5117362;28;20024;-37
2023/08/31 03:56:04;;;;;;;12.60;11.27;;;;;;;11.49;100.00;100840.19;5117352;28;20028;-37
2023/08/31 03:58:29;;;;;;;13.00;11.70;;;;;;;11.43;100.00;100841.94;5117220;28;20023;-37
2023/08/31 04:00:55;;;;;;;12.35;10.52;;;;;;;11.45;100.00;100836.28;5117389;28;20039;-37
2023/08/31 04:03:20;;;;;;;11.15;10.00;;;;;;;11.47;100.00;100842.31;5118087;28;20070;-37
2023/08/31 04:05:46;;;;;;;11.93;10.38;;;;;;;11.40;100.00;100845.13;5116868;28;20185;-37
2023/08/31 04:08:12;;;;;;;12.32;10.50;;;;;;;11.41;100.00;100844.06;5117420;28;20027;-37
2023/08/31 04:10:37;;;;;;;10.27;9.38;;;;;;;11.38;100.00;100847.25;5117075;28;20020;-37
2023/08/31 04:13:03;;;;;;;10.40;9.38;;;;;;;11.39;100.00;100857.00;5117583;28;20023;-37
2023/08/31 04:15:30;;;;;;;10.27;9.27;;;;;;;11.35;100.00;100848.53;5117279;28;20115;-37
2023/08/31 04:17:56;;;;;;;10.73;9.63;;;;;;;11.37;100.00;100861.84;5117389;28;20027;-37
2023/08/31 04:20:22;;;;;;;10.20;9.00;;;;;;;11.30;100.00;100851.13;5117122;28;20027;-37
2023/08/31 04:22:47;;;;;;;11.30;9.40;;;;;;;11.32;100.00;100865.25;5117093;28;20027;-37
2023/08/31 04:25:12;;;;;;;9.17;8.23;;;;;;;11.31;100.00;100865.47;5116422;28;20019;-37
2023/08/31 04:27:39;;;;;;;9.10;8.20;;;;;;;11.27;100.00;100858.88;5116792;28;20256;-37
2023/08/31 04:30:06;;;;;;;10.02;9.02;;;;;;;11.29;100.00;100857.59;5116623;28;20036;-37
2023/08/31 04:32:32;;;;;;;8.40;7.60;;;;;;;11.29;100.00;100867.59;5117258;27;20027;-37
2023/08/31 04:34:58;;;;;;;9.05;7.97;;;;;;;11.22;100.00;100866.88;5116868;28;20020;-37
2023/08/31 04:37:23;;;;;;;9.13;8.23;;;;;;;11.19;100.00;100861.97;5117020;28;20026;-37
2023/08/31 04:39:48;;;;;;;10.13;8.15;;;;;;;11.24;100.00;100871.03;5116132;28;20379;-37
2023/08/31 04:42:16;;;;;;;8.83;7.80;;;;;;;11.17;100.00;100858.66;5116802;28;20030;-37
2023/08/31 04:44:42;;;;;;;9.43;8.63;;;;;;;11.19;100.00;100870.91;5116887;28;20027;-37
2023/08/31 04:47:07;;;;;;;9.32;7.85;;;;;;;11.21;100.00;100870.66;5116366;28;20024;-37
2023/08/31 04:49:32;;;;;;;9.13;8.23;;;;;;;11.16;100.00;100862.41;5116546;28;20076;-37
2023/08/31 04:51:58;;;;;;;10.60;8.93;;;;;;;11.23;100.00;100879.38;5116459;28;20094;-36
2023/08/31 04:54:23;;;;;;;9.00;8.20;;;;;;;11.25;100.00;100882.66;5117040;28;20254;-37
2023/08/31 04:56:48;;;;;;;8.77;7.87;;;;;;;11.25;100.00;100880.78;5115971;28;20023;-41
2023/08/31 04:59:14;;;;;;;10.20;7.73;;;;;;;11.24;100.00;100887.25;5116243;28;20299;-37
2023/08/31 05:01:39;;;;;;;9.52;8.13;;;;;;;11.25;100.00;100888.09;5115976;28;20036;-37
2023/08/31 05:04:05;;;;;;;8.80;7.90;;;;;;;11.21;100.00;100887.72;5116531;28;20051;-37
2023/08/31 05:06:30;;;;;;;;;;;;;;;11.32;100.00;100891.47;5116976;28;20258;-37
2023/08/31 05:08:56;;;;;;;11.57;7.47;;;;;;;11.33;100.00;100904.00;5116714;28;20258;-36
2023/08/31 05:11:22;;;;;;;8.75;7.90;;;;;;;11.28;100.00;100903.88;5115934;27;20254;-37
2023/08/31 05:13:48;;;;;;;9.73;8.13;;;;;;;11.31;100.00;100903.38;5115882;28;20106;-37
2023/08/31 05:16:13;;;;;;;9.30;8.10;;;;;;;11.27;100.00;100902.19;5116035;28;20038;-37
2023/08/31 05:18:40;;;;;;;8.93;7.72;;;;;;;11.36;100.00;100908.91;5115708;28;20024;-37
2023/08/31 05:21:06;;;;;;;8.00;7.20;;;;;;;11.24;100.00;100898.09;5115621;28;20028;-37
2023/08/31 05:23:31;;;;;;;9.23;7.18;;;;;;;11.34;100.00;100908.34;5116464;28;20039;-37
2023/08/31 05:25:57;;;;;;;8.77;7.88;;;;;;;11.35;100.00;100920.81;5115525;28;20375;-37
2023/08/31 05:28:23;;;;;;;9.65;7.88;;;;;;;11.32;100.00;100921.25;5115527;28;20065;-37
2023/08/31 05:30:53;;;;;;;9.07;7.18;;;;;;;11.30;100.00;100928.81;5115476;28;20096;-37
2023/08/31 05:33:19;;;;;;;11.75;7.22;;;;;;;11.17;100.00;100904.66;5116030;27;20024;-37
2023/08/31 05:35:45;;;;;;;7.63;6.93;;;;;;;11.34;100.00;100935.41;5115390;28;20031;-37
2023/08/31 05:38:11;;;;;;;10.15;6.55;;;;;;;11.36;100.00;100933.28;5115244;28;20019;-37
2023/08/31 05:40:37;;;;;;;8.23;6.57;;;;;;;11.40;100.00;100939.06;5115264;28;20097;-37
2023/08/31 05:43:03;;;;;;;11.60;7.10;;;;;;;11.39;100.00;100932.00;5115496;28;20023;-37
2023/08/31 05:45:34;;;;;;;7.82;7.03;;;;;;;11.38;100.00;100925.78;5115452;28;20026;-37
2023/08/31 05:48:00;;;;;;;7.53;6.72;;;;;;;11.48;100.00;100930.59;5115633;28;20028;-37
2023/08/31 05:50:29;;;;;;;7.82;6.28;;;;;;;11.55;100.00;100937.53;5115143;28;20028;-37
2023/08/31 05:52:55;;;;;;;8.20;7.18;;;;;;;11.64;100.00;100946.13;5114728;28;20019;-37
2023/08/31 05:55:21;;;;;;;8.90;7.05;;;;;;;11.69;100.00;100942.72;5115019;28;20034;-37
2023/08/31 05:57:46;;;;;;;7.45;6.60;;;;;;;11.77;100.00;100945.09;5115210;28;20027;-36
2023/08/31 06:00:12;;;;;;;8.20;6.38;;;;;;;11.83;100.00;100944.16;5114931;28;20332;-36
2023/08/31 06:02:37;;;;;;;18.80;8.27;;;;;;;11.89;100.00;100936.97;5114570;28;20043;-37
2023/08/31 06:05:04;;;;;;;7.28;6.10;;;;;;;11.97;100.00;100940.16;5114870;28;20106;-37
2023/08/31 06:07:29;;;;;;;7.10;5.65;;;;;;;12.03;100.00;100944.63;5115156;28;20119;-37
2023/08/31 06:09:55;;;;;;;9.27;7.07;;;;;;;12.08;100.00;100944.72;5114481;28;20091;-37
2023/08/31 06:12:21;;;;;;;7.28;6.00;;;;;;;12.12;100.00;100947.78;5115213;28;20023;-37
2023/08/31 06:14:46;;;;;;;6.63;5.22;;;;;;;12.24;100.00;100954.00;5114572;28;20031;-38
2023/08/31 06:17:12;;;;;;;7.93;5.70;;;;;;;12.25;100.00;100944.81;5114670;28;20027;-37
2023/08/31 06:19:38;;;;;;;6.75;4.88;;;;;;;12.36;100.00;100962.13;5114558;28;20261;-37
2023/08/31 06:22:04;;;;;;;8.63;5.40;;;;;;;12.36;100.00;100959.41;5114252;28;20034;-37
2023/08/31 06:24:29;;;;;;;8.30;4.93;;;;;;;12.40;100.00;100962.47;5114449;28;20106;-37
2023/08/31 06:26:56;;;;;;;6.97;5.43;;;;;;;12.42;100.00;100954.91;5114966;28;20043;-37
2023/08/31 06:29:22;;;;;;;6.53;5.13;;;;;;;12.49;100.00;100961.84;5115144;28;20065;-37
2023/08/31 06:31:47;;;;;;;6.97;5.00;;;;;;;12.57;100.00;100963.34;5114642;28;20457;-37
2023/08/31 06:34:13;;;;;;;9.27;5.32;;;;;;;12.54;100.00;100953.81;5115138;28;20450;-37
2023/08/31 06:36:38;;;;;;;7.80;5.68;;;;;;;12.59;100.00;100956.63;5114366;28;20020;-37
2023/08/31 06:39:04;;;;;;;5.50;4.97;;;;;;;12.73;100.00;100961.75;5114449;28;20035;-37
2023/08/31 06:41:30;;;;;;;10.23;5.72;;;;;;;12.74;100.00;100960.69;5114768;28;20073;-37
2023/08/31 06:43:55;;;;;;;7.15;5.05;;;;;;;12.82;100.00;100963.00;5114641;28;20102;-37
2023/08/31 06:46:21;;;;;;;8.70;5.50;;;;;;;12.87;100.00;100958.50;5113431;28;20088;-37
2023/08/31 06:48:46;;;;;;;8.85;5.68;;;;;;;12.92;100.00;100965.91;5114960;28;20382;-37
2023/08/31 06:51:11;;;;;;;6.47;5.10;;;;;;;12.96;100.00;100967.06;5114101;28;20023;-37
2023/08/31 06:53:37;;;;;;;5.90;4.53;;;;;;;13.09;100.00;100980.34;5113829;28;20257;-37
2023/08/31 06:56:02;;;;;;;7.90;5.05;;;;;;;13.15;100.00;100984.78;5114430;28;20448;-37
2023/08/31 06:58:28;;;;;;;6.28;4.82;;;;;;;13.19;100.00;100976.16;5114375;28;20467;-37
2023/08/31 07:00:53;;;;;;;7.43;5.23;;;;;;;13.23;100.00;100970.03;5113989;28;20047;-37
2023/08/31 07:03:18;;;;;;;7.05;5.30;;;;;;;13.36;100.00;100990.59;5114620;28;20020;-37
2023/08/31 07:05:44;;;;;;;6.20;4.47;;;;;;;13.38;100.00;100980.34;5114372;28;20094;-37
2023/08/31 07:08:10;;;;;;;5.38;4.70;;;;;;;13.43;100.00;100983.13;5114786;28;20281;-37
2023/08/31 07:10:38;;;;;;;8.85;4.60;;;;;;;13.60;100.00;100992.09;5113932;28;20031;-37
2023/08/31 07:13:04;;;;;;;7.22;4.97;;;;;;;13.65;100.00;100994.88;5113939;28;20024;-38
2023/08/31 07:15:30;;;;;;;7.18;4.70;;;;;;;13.60;100.00;100981.22;5113974;28;20031;-37
2023/08/31 07:17:55;;;;;;;;;;;;;;;13.84;100.00;101005.50;5114866;28;20110;-38
2023/08/31 07:20:21;;;;;;;7.17;4.67;;;;;;;13.85;100.00;101001.72;5116434;28;19907;-37
2023/08/31 07:22:46;;;;;;;6.97;4.47;;;;;;;13.87;100.00;101008.56;5117797;28;20254;-38
2023/08/31 07:25:12;;;;;;;6.95;4.40;;;;;;;13.90;100.00;100988.19;5118840;28;20294;-38
2023/08/31 07:27:37;;;;;;;5.45;4.30;;;;;;;13.95;100.00;100993.69;5118009;28;20027;-37
2023/08/31 07:30:04;;;;;;;;;;;;;;;14.11;100.00;101003.75;5118361;28;20023;-37
2023/08/31 07:32:29;;;;;;;8.40;4.53;;;;;;;14.12;100.00;100999.13;5118380;28;20339;-37
2023/08/31 07:34:54;;;;;;;;;;;;;;;14.21;100.00;101004.97;5117896;28;20098;-37
2023/08/31 07:37:20;;;;;;;6.20;4.30;;;;;;;14.25;100.00;101000.66;5117366;28;19907;-37
2023/08/31 07:39:45;;;;;;;7.93;4.30;;;;;;;14.29;100.00;100996.34;5118229;27;20289;-37
2023/08/31 07:42:11;;;;;;;6.45;4.53;;;;;;;14.39;100.00;100999.19;5117873;28;20318;-37
2023/08/31 07:44:36;;;;;;;7.25;4.28;;;;;;;14.39;100.00;101000.03;5117617;28;20023;-37
2023/08/31 07:47:02;;;;;;;8.63;5.20;;;;;;;14.51;100.00;101002.66;5117589;28;20019;-37
2023/08/31 07:49:27;;;;;;;;;;;;;;;14.61;100.00;101002.78;5117875;28;20052;-37
2023/08/31 07:51:52;;;;;;;5.37;3.97;;;;;;;14.65;100.00;101000.41;5117755;28;19904;-38
2023/08/31 07:54:25;;;;;;;7.10;4.30;;;;;;;14.72;100.00;101005.63;5117410;28;20276;-37
2023/08/31 07:56:51;;;;;;;7.32;4.40;;;;;;;14.76;100.00;101004.06;5117383;28;20073;-37
2023/08/31 07:59:17;;;;;;;6.50;4.22;;;;;;;14.87;100.00;101014.78;5117731;28;20028;-37
2023/08/31 08:01:43;;;;;;;;;;;;;;;14.96;100.00;101004.25;5118222;28;20044;-37
2023/08/31 08:04:08;;;;;;;7.07;4.30;;;;;;;15.00;100.00;101012.75;5117210;28;19907;-37
2023/08/31 08:06:33;;;;;;;6.07;4.13;;;;;;;15.07;100.00;101014.19;5116166;28;20274;-37
2023/08/31 08:08:59;;;;;;;;;;;;;;;15.19;100.00;101014.03;5117576;28;20067;-37
2023/08/31 08:11:24;;;;;;;9.07;4.68;;;;;;;15.17;100.00;101000.66;5116874;28;19912;-37
2023/08/31 08:13:49;;;;;;;;;;;;;;;15.38;100.00;101012.59;5117449;28;20044;-36
2023/08/31 08:16:15;;;;;;;8.13;3.90;;;;;;;15.44;100.00;101017.00;5117240;28;19908;-36
2023/08/31 08:18:40;;;;;;;;;;;;;;;15.53;100.00;101013.81;5117383;28;20024;-37
2023/08/31 08:21:06;;;;;;;5.80;3.55;;;;;;;15.53;100.00;101011.09;5116595;28;20323;-36
2023/08/31 08:23:31;;;;;;;6.75;4.13;;;;;;;15.64;100.00;101012.84;5116931;27;20413;-36
2023/08/31 08:25:59;;;;;;;7.25;3.83;;;;;;;15.78;100.00;101026.84;5116114;28;20034;-36
2023/08/31 08:28:25;;;;;;;9.40;4.22;;;;;;;15.86;100.00;101021.75;5117018;28;20368;-36
2023/08/31 08:30:50;;;;;;;7.93;4.25;;;;;;;15.93;100.00;101024.22;5116492;28;20085;-36
2023/08/31 08:33:16;;;;;;;7.18;3.80;;;;;;;16.06;100.00;101023.78;5116998;28;20055;-37
2023/08/31 08:35:41;;;;;;;;;;;;;;;16.17;100.00;101025.47;5117316;28;20401;-37
2023/08/31 08:38:07;;;;;;;7.22;3.92;;;;;;;16.22;100.00;101024.69;5116496;28;19908;-36
2023/08/31 08:40:33;;;;;;;;;;;;;;;16.39;100.00;101030.78;5116769;28;20024;-37
2023/08/31 08:43:00;;;;;;;7.80;4.40;;;;;;;16.42;100.00;101026.69;5116930;28;19953;-36
2023/08/31 08:45:30;;;;;;;6.30;3.90;;;;;;;16.49;100.00;101024.53;5116430;28;20030;-36
2023/08/31 08:47:57;;;;;;;6.53;4.25;;;;;;;16.69;100.00;101032.03;5117133;27;20030;-37
2023/08/31 08:50:24;;;;;;;6.53;3.90;;;;;;;16.73;100.00;101035.88;5116055;28;20540;-36
2023/08/31 08:52:50;;;;;;;5.63;3.83;;;;;;;16.81;100.00;101031.81;5115962;28;20098;-36
2023/08/31 08:55:15;;;;;;;6.18;4.05;;;;;;;16.88;100.00;101032.38;5116771;28;20020;-36
2023/08/31 08:57:41;;;;;;;;;;;;;;;17.01;100.00;101036.53;5116209;28;20026;-36
2023/08/31 09:00:07;;;;;;;6.60;3.95;;;;;;;16.97;100.00;101034.31;5116396;28;19990;-36
2023/08/31 09:02:32;;;;;;;;;;;;;;;17.14;100.00;101036.81;5116210;28;20371;-37
2023/08/31 09:04:57;;;;;;;8.03;4.00;;;;;;;17.14;100.00;101017.69;5115765;28;19949;-36
2023/08/31 09:07:23;;;;;;;;;;;;;;;17.36;100.00;101035.75;5116199;28;20801;-36
2023/08/31 09:09:53;;;;;;;5.97;3.30;;;;;;;17.53;100.00;101036.34;5115645;28;19947;-36
2023/08/31 09:12:20;;;;;;;4.65;3.17;;;;;;;17.59;100.00;101031.69;5115939;27;20111;-36
2023/08/31 09:14:59;;;;;;;6.03;3.63;;;;;;;17.65;100.00;101033.31;5115564;27;20016;-36
2023/08/31 09:17:28;;;;;;;7.07;4.05;;;;;;;17.70;100.00;101036.88;5115451;28;20026;-36
2023/08/31 09:20:00;;;;;;;7.50;3.03;;;;;;;17.85;100.00;101038.00;5116084;28;20030;-36
2023/08/31 09:22:26;;;;;;;4.78;3.10;;;;;;;17.94;100.00;101030.88;5116027;28;20053;-37
2023/08/31 09:24:51;;;;;;;;;;;;;;;18.19;100.00;101036.28;5116083;28;20095;-37
2023/08/31 09:27:20;;;;;;;4.87;2.90;;;;;;;18.05;100.00;101021.53;5115639;28;19904;-36
2023/08/31 09:29:46;;;;;;;4.82;3.08;;;;;;;18.17;100.00;101029.47;5115599;28;20269;-37
2023/08/31 09:32:17;;;;;;;4.85;2.95;;;;;;;18.41;100.00;101038.72;5116110;28;20020;-37
2023/08/31 09:34:42;;;;;;;4.00;2.90;;;;;;;18.51;100.00;101046.09;5115819;28;20058;-37
2023/08/31 09:37:09;;;;;;;;;;;;;;;18.72;100.00;101038.63;5116471;28;20515;-37
2023/08/31 09:39:41;;;;;;;6.75;2.83;;;;;;;18.72;100.00;101042.19;5115246;28;19907;-37
2023/08/31 09:42:06;;;;;;;3.47;2.17;;;;;;;18.68;97.19;101043.84;5114805;28;20024;-37
2023/08/31 09:44:31;;;;;;;;;;;;;;;18.81;98.54;101044.34;5116230;28;20344;-37
2023/08/31 09:46:58;;;;;;;4.97;2.60;;;;;;;18.68;99.01;101040.25;5116064;28;19955;-37
2023/08/31 09:49:25;;;;;;;7.20;2.70;;;;;;;18.65;98.94;101036.16;5114201;28;20363;-37
2023/08/31 09:51:51;;;;;;;6.55;2.80;;;;;;;18.44;96.00;101043.63;5114514;28;20020;-37
2023/08/31 09:54:18;;;;;;;4.97;2.17;;;;;;;18.39;98.72;101043.63;5115859;28;20414;-37
2023/08/31 09:56:46;;;;;;;3.70;2.30;;;;;;;18.20;97.92;101037.97;5115062;28;20072;-38
2023/08/31 09:59:14;;;;;;;9.23;2.47;;;;;;;18.05;96.76;101045.34;5114586;28;20533;-38
2023/08/31 10:01:41;;;;;;;4.60;2.78;;;;;;;17.97;100.00;101041.28;5115255;28;20040;-38
2023/08/31 10:04:08;;;;;;;4.70;2.60;;;;;;;18.04;100.00;101041.81;5114927;28;20032;-37
2023/08/31 10:06:35;;;;;;;4.35;2.40;;;;;;;18.20;100.00;101046.16;5114896;28;20085;-38
2023/08/31 10:09:02;;;;;;;3.25;1.60;;;;;;;18.24;93.86;101040.94;5114831;28;20054;-37
2023/08/31 10:11:29;;;;;;;2.70;1.35;;;;;;;18.45;90.86;101041.72;5115283;28;20440;-38
2023/08/31 10:13:55;;;;;;;1.90;1.33;;;;;;;18.56;90.14;101054.28;5114686;28;20045;-38
2023/08/31 10:16:21;;;;;;;;;;;;;;;18.71;93.37;101043.28;5115441;28;20031;-38
2023/08/31 10:18:47;;;;;;;6.72;2.30;;;;;;;18.74;90.12;101044.66;5114568;28;19918;-37
2023/08/31 10:21:17;;;;;;;4.18;1.48;;;;;;;18.87;91.61;101046.78;5114878;28;20401;-37
2023/08/31 10:23:46;;;;;;;3.75;1.33;;;;;;;19.02;89.18;101051.34;5114824;28;20023;-37
2023/08/31 10:26:12;;;;;;;3.63;1.65;;;;;;;19.13;88.10;101039.25;5115384;28;20024;-37
2023/08/31 10:28:42;;;;;;;;;;;;;;;19.38;90.78;101031.97;5115308;28;20035;-37
2023/08/31 10:31:16;;;;;;;3.53;1.88;;;;;;;19.50;90.59;101027.72;5114381;28;19907;-37
2023/08/31 10:33:58;;;;;;;3.72;1.70;;;;;;;19.74;89.93;101030.59;5114900;28;20432;-37
2023/08/31 10:36:44;;;;;;;4.88;2.00;;;;;;;19.74;86.08;101021.53;5114015;28;20378;-37
2023/08/31 10:39:17;;;;;;;4.03;2.08;;;;;;;19.70;86.80;101032.25;5114278;28;20019;-37
2023/08/31 10:41:54;;;;;;;3.53;1.90;;;;;;;19.80;86.71;101040.41;5114293;28;20019;-38
2023/08/31 10:44:21;;;;;;;4.40;2.20;;;;;;;19.91;85.64;101032.06;5114869;28;20073;-38
2023/08/31 10:46:48;;;;;;;5.10;1.83;;;;;;;20.06;84.97;101020.97;5114317;28;20028;-37
2023/08/31 10:49:15;;;;;;;3.70;1.75;;;;;;;20.03;81.33;101032.53;5114446;28;20065;-37
2023/08/31 10:51:42;;;;;;;3.15;1.40;;;;;;;20.16;81.38;101025.53;5114790;28;20024;-37
2023/08/31 10:54:24;;;;;;;3.05;1.63;;;;;;;20.29;79.85;101014.66;5114164;28;20019;-37
2023/08/31 10:57:03;;;;;;;4.90;1.65;;;;;;;20.44;81.67;101021.91;5114991;28;20028;-37
2023/08/31 10:59:48;;;;;;;4.30;1.40;;;;;;;20.58;76.47;101027.53;5114560;28;20031;-37
2023/08/31 11:02:37;;;;;;;3.97;1.38;;;;;;;20.47;72.86;101026.03;5114054;28;20067;-37
2023/08/31 11:05:14;;;;;;;4.95;1.30;;;;;;;20.53;74.36;101025.69;5114257;28;20355;-37
2023/08/31 11:07:43;;;;;;;3.33;1.50;;;;;;;20.47;74.84;101021.34;5114322;28;20072;-37
2023/08/31 11:10:17;;;;;;;3.03;1.27;;;;;;;20.63;75.36;101013.75;5113970;28;20020;-37
2023/08/31 11:12:45;;;;;;;3.53;1.40;;;;;;;20.73;77.06;101019.09;5113978;28;20020;-37
2023/08/31 11:15:31;;;;;;;4.10;2.15;;;;;;;20.75;79.60;101025.13;5113919;28;20020;-37
2023/08/31 11:17:57;;;;;;;;;;;;;;;20.62;78.02;101023.09;5114594;28;20088;-37
2023/08/31 11:20:27;;;;;;;3.90;1.60;;;;;;;20.13;77.35;101026.94;5113931;28;19908;-37